createdAt,value
2024-03-12T00:00:45.108Z,99658.13
2024-03-12T00:05:45.932Z,99667.69
2024-03-12T00:10:48.433Z,99662.47
2024-03-12T00:15:49.205Z,99673.13
2024-03-12T00:20:52.488Z,99674.97
2024-03-12T00:25:54.587Z,99671.47
2024-03-12T00:30:56.227Z,99669.66
2024-03-12T00:35:59.179Z,99677.63
2024-03-12T00:41:01.209Z,99677.59
2024-03-12T00:46:02.892Z,99682.78
2024-03-12T00:51:03.631Z,99677.72
2024-03-12T00:56:06.163Z,99673.66
2024-03-12T01:01:08.044Z,99672.78
2024-03-12T01:06:09.603Z,99676.97
2024-03-12T01:11:14.229Z,99687.41
2024-03-12T01:16:16.170Z,99688.34
2024-03-12T01:21:16.959Z,99683.31
2024-03-12T01:26:18.956Z,99684.00
2024-03-12T01:31:22.366Z,99694.38
2024-03-12T01:36:35.350Z,99693.59
2024-03-12T01:41:42.822Z,99703.25
2024-03-12T01:46:43.956Z,99698.00
2024-03-12T01:51:54.494Z,99702.44
2024-03-12T01:56:56.590Z,99705.81
2024-03-12T02:02:01.008Z,99705.88
2024-03-12T02:07:01.924Z,99703.31
2024-03-12T02:12:05.106Z,99694.78
2024-03-12T02:17:06.896Z,99698.09
2024-03-12T02:22:07.731Z,99705.06
2024-03-12T02:27:10.578Z,99704.34
2024-03-12T02:32:11.358Z,99710.38
2024-03-12T02:37:12.377Z,99706.97
2024-03-12T02:42:14.494Z,99706.94
2024-03-12T02:47:15.231Z,99713.97
2024-03-12T02:52:15.912Z,99711.47
2024-03-12T02:57:18.421Z,99710.53
2024-03-12T03:02:19.119Z,99707.94
2024-03-12T03:07:19.786Z,99717.56
2024-03-12T03:12:22.149Z,99715.91
2024-03-12T03:17:23.001Z,99723.72
2024-03-12T03:22:23.739Z,99722.88
2024-03-12T03:27:26.033Z,99738.38
2024-03-12T03:32:26.985Z,99738.41
2024-03-12T03:37:31.981Z,99745.38
2024-03-12T03:42:34.168Z,99748.84
2024-03-12T03:47:36.282Z,99747.94
2024-03-12T03:52:38.192Z,99750.50
2024-03-12T03:57:40.738Z,99755.69
2024-03-12T04:02:42.837Z,99766.06
2024-03-12T04:07:45.598Z,99772.09
2024-03-12T04:12:48.301Z,99781.63
2024-03-12T04:17:49.246Z,99787.63
2024-03-12T04:22:50.665Z,99788.44
2024-03-12T04:27:54.711Z,99798.00
2024-03-12T04:32:55.542Z,99797.09
2024-03-12T04:37:56.438Z,99803.13
2024-03-12T04:42:59.077Z,99808.38
2024-03-12T04:47:59.881Z,99819.66
2024-03-12T04:53:01.204Z,99829.09
2024-03-12T04:58:03.252Z,99827.31
2024-03-12T05:03:04.190Z,99835.91
2024-03-12T05:08:05.250Z,99833.28
2024-03-12T05:13:07.512Z,99842.78
2024-03-12T05:18:09.029Z,99847.13
2024-03-12T05:23:11.746Z,99850.56
2024-03-12T05:28:14.117Z,99853.13
2024-03-12T05:33:16.588Z,99855.69
2024-03-12T05:38:33.627Z,99857.47
2024-03-12T05:43:53.817Z,99863.34
2024-03-12T05:48:54.758Z,99877.28
2024-03-12T05:53:55.559Z,99884.94
2024-03-12T05:58:57.597Z,99886.41
2024-03-12T06:03:58.341Z,99893.31
2024-03-12T06:08:59.064Z,99892.47
2024-03-12T06:14:04.301Z,99892.59
2024-03-12T06:19:05.471Z,99911.53
2024-03-12T06:24:06.910Z,99912.41
2024-03-12T06:29:09.424Z,99915.75
2024-03-12T06:34:10.125Z,99926.00
2024-03-12T06:39:14.884Z,99924.31
2024-03-12T06:44:20.142Z,99928.59
2024-03-12T06:49:21.337Z,99929.94
2024-03-12T06:54:22.246Z,99934.16
2024-03-12T06:59:25.973Z,99940.19
2024-03-12T07:04:35.846Z,99939.22
2024-03-12T07:09:42.212Z,99936.44
2024-03-12T07:14:46.630Z,99946.53
2024-03-12T07:19:48.781Z,99940.38
2024-03-12T07:24:49.804Z,99935.72
2024-03-12T07:29:51.837Z,99935.41
2024-03-12T07:34:52.691Z,99953.38
2024-03-12T07:39:53.395Z,99950.41
2024-03-12T07:44:55.429Z,99945.00
2024-03-12T07:49:56.141Z,99951.28
2024-03-12T07:54:56.934Z,99959.44
2024-03-12T07:59:59.080Z,99954.75
2024-03-12T08:05:00.889Z,99953.09
2024-03-12T08:10:01.710Z,99943.75
2024-03-12T08:15:04.524Z,99954.22
2024-03-12T08:20:07.154Z,99961.88
2024-03-12T08:25:08.707Z,99962.47
2024-03-12T08:30:13.133Z,99970.03
2024-03-12T08:35:13.828Z,99968.84
2024-03-12T08:40:15.803Z,99966.19
2024-03-12T08:45:21.256Z,99970.97
2024-03-12T08:50:23.832Z,99973.78
2024-03-12T08:55:24.821Z,99978.91
2024-03-12T09:00:30.070Z,99989.00
2024-03-12T09:05:30.959Z,99978.50
2024-03-12T09:10:31.843Z,99986.94
2024-03-12T09:15:34.141Z,99990.72
2024-03-12T09:20:37.736Z,99993.88
2024-03-12T09:25:38.595Z,99992.06
2024-03-12T09:30:40.735Z,100001.53
2024-03-12T09:35:42.329Z,100005.84
2024-03-12T09:40:43.640Z,100008.75
2024-03-12T09:45:46.551Z,100005.66
2024-03-12T09:50:47.987Z,100008.47
2024-03-12T09:55:50.216Z,99999.44
2024-03-12T10:00:54.436Z,99992.66
2024-03-12T10:05:55.424Z,100001.03
2024-03-12T10:10:57.285Z,100000.16
2024-03-12T10:16:02.026Z,100011.88
2024-03-12T10:21:03.893Z,100006.75
2024-03-12T10:26:10.931Z,100007.19
2024-03-12T10:31:14.829Z,100007.63
2024-03-12T10:36:15.655Z,100023.16
2024-03-12T10:41:17.929Z,100017.22
2024-03-12T10:46:22.321Z,100021.53
2024-03-12T10:51:23.613Z,100023.97
2024-03-12T10:56:24.622Z,100021.75
2024-03-12T11:01:29.375Z,100024.50
2024-03-12T11:06:32.037Z,100029.31
2024-03-12T11:11:34.317Z,100029.41
2024-03-12T11:16:41.817Z,100028.22
2024-03-12T11:21:42.805Z,100021.19
2024-03-12T11:26:51.899Z,100019.59
2024-03-12T11:31:53.897Z,100010.75
2024-03-12T11:36:57.562Z,100012.75
2024-03-12T11:42:16.296Z,100006.19
2024-03-12T11:47:32.641Z,100002.31
2024-03-12T11:52:34.847Z,99994.13
2024-03-12T11:57:36.125Z,99993.81
2024-03-12T12:02:43.579Z,99981.19
2024-03-12T12:07:44.439Z,99979.75
2024-03-12T12:12:49.022Z,99987.16
2024-03-12T12:17:53.656Z,99984.84
2024-03-12T12:22:54.495Z,99987.41
2024-03-12T12:27:56.558Z,99980.78
2024-03-12T12:32:58.950Z,99982.19
2024-03-12T12:38:00.810Z,99977.53
2024-03-12T12:43:01.531Z,99971.28
2024-03-12T12:48:09.026Z,99965.75
2024-03-12T12:53:10.781Z,99971.56
2024-03-12T12:58:12.192Z,99971.22
2024-03-12T13:03:18.678Z,99981.91
2024-03-12T13:08:24.032Z,99982.28
2024-03-12T13:13:26.389Z,99983.53
2024-03-12T13:18:28.409Z,99980.53
2024-03-12T13:23:29.840Z,99987.97
2024-03-12T13:28:31.848Z,99987.78
2024-03-12T13:33:34.263Z,99992.59
2024-03-12T13:38:35.752Z,99991.31
2024-03-12T13:43:38.971Z,99995.09
2024-03-12T13:48:42.180Z,100008.44
2024-03-12T13:53:44.595Z,99996.75
2024-03-12T13:58:47.778Z,100015.88
2024-03-12T14:03:52.797Z,100019.06
2024-03-12T14:08:53.610Z,100011.91
2024-03-12T14:13:56.740Z,100018.28
2024-03-12T14:18:59.291Z,100016.31
2024-03-12T14:24:00.390Z,100014.06
2024-03-12T14:29:01.224Z,100017.59
2024-03-12T14:34:05.473Z,100016.13
2024-03-12T14:39:08.896Z,100021.66
2024-03-12T14:44:10.238Z,100021.13
2024-03-12T14:49:14.050Z,100019.53
2024-03-12T14:54:16.206Z,100024.00
2024-03-12T14:59:16.937Z,100031.22
2024-03-12T15:04:19.847Z,100033.72
2024-03-12T15:09:22.563Z,100036.34
2024-03-12T15:14:23.920Z,100046.22
2024-03-12T15:19:26.058Z,100041.28
2024-03-12T15:24:27.286Z,100041.75
2024-03-12T15:29:31.104Z,100055.19
2024-03-12T15:34:36.551Z,100052.41
2024-03-12T15:39:37.351Z,100057.63
2024-03-12T15:44:38.420Z,100053.63
2024-03-12T15:49:41.245Z,100059.06
2024-03-12T15:54:48.177Z,100057.69
2024-03-12T15:59:50.219Z,100062.25
2024-03-12T16:04:52.220Z,100065.75
2024-03-12T16:09:53.141Z,100070.19
2024-03-12T16:14:54.084Z,100069.44
2024-03-12T16:19:56.154Z,100068.78
2024-03-12T16:24:56.945Z,100079.38
2024-03-12T16:29:57.651Z,100079.41
2024-03-12T16:34:59.959Z,100084.06
2024-03-12T16:40:01.207Z,100088.53
2024-03-12T16:45:02.755Z,100086.22
2024-03-12T16:50:05.901Z,100092.56
2024-03-12T16:55:08.383Z,100099.84
2024-03-12T17:00:12.191Z,100101.81
2024-03-12T17:05:17.501Z,100104.78
2024-03-12T17:10:19.212Z,100109.38
2024-03-12T17:15:21.787Z,100116.53
2024-03-12T17:20:24.869Z,100120.38
2024-03-12T17:25:26.408Z,100127.34
2024-03-12T17:30:27.952Z,100123.25
2024-03-12T17:35:31.106Z,100130.16
2024-03-12T17:40:33.831Z,100138.09
2024-03-12T17:45:36.674Z,100133.75
2024-03-12T17:50:39.670Z,100139.91
2024-03-12T17:55:43.977Z,100146.09
2024-03-12T18:00:45.706Z,100148.66
2024-03-12T18:05:48.475Z,100152.28
2024-03-12T18:10:50.029Z,100165.53
2024-03-12T18:15:51.113Z,100163.78
2024-03-12T18:20:53.196Z,100171.59
2024-03-12T18:25:53.917Z,100173.44
2024-03-12T18:30:54.670Z,100172.53
2024-03-12T18:35:56.706Z,100175.41
2024-03-12T18:40:57.435Z,100186.66
2024-03-12T18:45:58.342Z,100184.16
2024-03-12T18:51:01.173Z,100190.16
2024-03-12T18:56:02.526Z,100193.59
2024-03-12T19:01:04.073Z,100200.03
2024-03-12T19:06:18.998Z,100196.66
2024-03-12T19:11:27.491Z,100196.59
2024-03-12T19:16:30.584Z,100208.81
2024-03-12T19:21:33.291Z,100203.63
2024-03-12T19:26:34.071Z,100205.53
2024-03-12T19:31:35.298Z,100208.13
2024-03-12T19:36:41.420Z,100207.34
2024-03-12T19:41:45.639Z,100213.50
2024-03-12T19:46:46.995Z,100209.19
2024-03-12T19:51:49.588Z,100211.75
2024-03-12T19:56:50.572Z,100224.75
2024-03-12T20:01:51.349Z,100225.91
2024-03-12T20:06:53.607Z,100228.31
2024-03-12T20:11:54.768Z,100221.53
2024-03-12T20:16:55.556Z,100224.56
2024-03-12T20:21:57.778Z,100226.22
2024-03-12T20:27:03.307Z,100228.03
2024-03-12T20:32:07.836Z,100228.13
2024-03-12T20:37:10.994Z,100227.97
2024-03-12T20:42:12.561Z,100235.66
2024-03-12T20:47:14.564Z,100240.88
2024-03-12T20:52:19.756Z,100242.06
2024-03-12T20:57:20.568Z,100245.50
2024-03-12T21:02:21.287Z,100244.72
2024-03-12T21:07:23.452Z,100250.03
2024-03-12T21:12:24.205Z,100243.88
2024-03-12T21:17:27.073Z,100247.50
2024-03-12T21:22:29.160Z,100243.34
2024-03-12T21:27:30.068Z,100239.19
2024-03-12T21:32:30.778Z,100246.09
2024-03-12T21:37:32.983Z,100245.34
2024-03-12T21:42:33.812Z,100247.22
2024-03-12T21:47:37.924Z,100250.72
2024-03-12T21:52:40.468Z,100252.41
2024-03-12T21:57:44.544Z,100256.81
2024-03-12T22:02:45.892Z,100264.59
2024-03-12T22:07:50.080Z,100270.78
2024-03-12T22:12:51.946Z,100279.44
2024-03-12T22:17:53.772Z,100279.50
2024-03-12T22:22:55.875Z,100274.34
2024-03-12T22:32:57.889Z,100287.34
2024-03-12T22:38:01.070Z,100282.09
2024-03-12T22:43:04.224Z,100281.25
2024-03-12T22:48:07.034Z,100285.59
2024-03-12T22:53:10.464Z,100286.47
2024-03-12T22:58:11.633Z,100282.03
2024-03-12T23:03:14.038Z,100288.06
2024-03-12T23:08:20.445Z,100288.03
2024-03-12T23:13:21.662Z,100283.94
2024-03-12T23:18:26.021Z,100289.78
2024-03-12T23:23:28.969Z,100291.53
2024-03-12T23:28:30.129Z,100285.28
2024-03-12T23:33:31.277Z,100286.25
2024-03-12T23:38:35.669Z,100293.25
2024-03-12T23:43:38.125Z,100298.47
2024-03-12T23:48:38.824Z,100287.22
2024-03-12T23:53:41.705Z,100295.78
2024-03-12T23:58:43.461Z,100287.22
